createdAt,value
2022-08-24T05:43:11.568Z,99.90
2022-08-24T05:45:44.393Z,99.90
2022-08-24T05:48:11.220Z,99.90
2022-08-24T05:50:39.911Z,99.90
2022-08-24T05:53:06.931Z,99.90
2022-08-24T05:55:35.294Z,99.90
2022-08-24T05:58:01.847Z,99.90
2022-08-24T06:00:28.952Z,99.90
2022-08-24T06:02:56.308Z,99.90
2022-08-24T06:05:23.040Z,99.90
2022-08-24T06:07:49.936Z,99.90
2022-08-24T06:10:35.946Z,99.90
2022-08-24T06:15:30.293Z,99.90
2022-08-24T06:17:56.976Z,99.90
2022-08-24T06:20:23.663Z,99.90
2022-08-24T06:22:50.403Z,99.90
2022-08-24T06:25:35.882Z,99.90
2022-08-24T06:28:02.568Z,99.90
2022-08-24T06:30:30.205Z,99.90
2022-08-24T06:33:01.075Z,99.90
2022-08-24T06:35:27.746Z,99.90
2022-08-24T06:37:56.513Z,99.90
2022-08-24T06:40:24.746Z,99.90
2022-08-24T06:42:51.750Z,99.90
2022-08-24T06:45:18.749Z,99.90
2022-08-24T06:47:45.778Z,99.90
2022-08-24T06:50:12.785Z,99.90
2022-08-24T07:02:28.336Z,99.90
2022-08-24T07:04:55.038Z,99.90
2022-08-24T07:09:49.086Z,99.90
2022-08-24T07:12:15.778Z,99.90
2022-08-24T07:17:09.911Z,99.90
2022-08-24T07:24:32.300Z,99.90
2022-08-24T07:26:58.974Z,99.90
2022-08-24T07:29:46.987Z,99.90
2022-08-24T07:34:39.260Z,99.90
2022-08-24T07:37:06.020Z,99.90
2022-08-24T07:39:32.672Z,99.90
2022-08-24T07:42:12.974Z,99.90
2022-08-24T07:44:40.600Z,99.90
2022-08-24T07:47:34.421Z,99.90
2022-08-24T07:49:54.128Z,99.90
2022-08-24T07:52:20.860Z,99.90
2022-08-24T07:54:47.524Z,99.90
2022-08-24T07:57:14.258Z,99.90
2022-08-24T07:59:40.906Z,99.90
2022-08-24T08:02:08.340Z,99.90
2022-08-24T08:04:35.012Z,99.90
2022-08-24T08:07:01.927Z,99.90
2022-08-24T08:09:29.289Z,99.90
2022-08-24T08:11:55.989Z,99.90
2022-08-24T08:14:22.642Z,99.90
2022-08-24T08:16:49.969Z,99.90
2022-08-24T08:19:16.709Z,99.90
2022-08-24T08:22:05.191Z,99.90
2022-08-24T08:24:31.831Z,99.90
2022-08-24T08:26:59.361Z,99.90
2022-08-24T08:29:26.769Z,99.90
2022-08-24T08:31:53.562Z,99.90
2022-08-24T08:34:20.226Z,99.90
2022-08-24T08:36:47.174Z,99.90
2022-08-24T08:39:15.745Z,99.90
2022-08-24T08:42:01.143Z,99.90
2022-08-24T08:49:22.131Z,99.90
2022-08-24T08:51:48.738Z,99.90
2022-08-24T08:54:35.674Z,99.90
2022-08-24T08:57:17.432Z,99.90
2022-08-24T08:59:47.822Z,99.90
2022-08-24T09:02:25.146Z,99.90
2022-08-24T09:05:05.223Z,99.90
2022-08-24T09:15:08.275Z,99.90
2022-08-24T09:17:38.572Z,99.90
2022-08-24T09:20:11.290Z,99.90
2022-08-24T09:22:43.435Z,99.90
2022-08-24T09:25:10.098Z,99.90
2022-08-24T09:27:55.851Z,99.90
2022-08-24T09:30:26.687Z,99.90
2022-08-24T09:33:00.097Z,99.90
2022-08-24T09:35:27.226Z,99.90
2022-08-24T09:38:00.810Z,99.90
2022-08-24T09:40:35.591Z,99.90
2022-08-24T09:43:17.544Z,99.90
2022-08-24T09:45:55.106Z,99.90
2022-08-24T09:48:24.831Z,99.90
2022-08-24T09:51:11.290Z,99.90
2022-08-24T09:53:47.137Z,99.90
2022-08-24T09:56:19.989Z,99.90
2022-08-24T09:58:54.672Z,99.90
2022-08-24T10:01:24.397Z,99.90
2022-08-24T10:04:15.195Z,99.90
2022-08-24T10:06:53.358Z,99.90
2022-08-24T10:09:24.131Z,99.90
2022-08-24T10:12:00.317Z,99.90
2022-08-24T10:14:39.173Z,99.90
2022-08-24T10:17:24.558Z,99.90
2022-08-24T10:20:00.439Z,99.90
2022-08-24T10:22:37.913Z,99.90
2022-08-24T10:25:04.666Z,99.90
2022-08-24T10:27:31.252Z,99.90
2022-08-24T10:30:00.895Z,99.90
2022-08-24T10:32:46.057Z,99.90
2022-08-24T10:43:07.344Z,99.90
2022-08-24T10:45:52.501Z,99.90
2022-08-24T10:48:30.225Z,99.90
2022-08-24T10:58:28.813Z,99.90
2022-08-24T11:00:55.698Z,99.90
2022-08-24T11:03:28.615Z,99.90
2022-08-24T11:05:56.778Z,99.90
2022-08-24T11:08:35.423Z,99.90
2022-08-24T11:11:13.222Z,99.90
2022-08-24T11:14:00.491Z,99.90
2022-08-24T11:16:31.029Z,99.90
2022-08-24T11:18:59.082Z,99.90
2022-08-24T11:21:34.844Z,99.90
2022-08-24T11:24:10.811Z,99.90
2022-08-24T11:26:53.626Z,99.90
2022-08-24T11:58:10.389Z,99.90
2022-08-24T12:21:38.402Z,95.20
2022-08-24T12:40:15.540Z,90.60
2022-08-24T12:42:53.273Z,90.90
2022-08-24T12:45:26.803Z,90.20
2022-08-24T12:48:04.048Z,91.90
2022-08-24T12:50:30.935Z,91.50
2022-08-24T12:53:15.172Z,93.10
2022-08-24T12:56:06.842Z,93.10
2022-08-24T13:03:34.656Z,94.10
2022-08-24T13:08:42.508Z,91.20
2022-08-24T13:11:28.718Z,93.90
2022-08-24T13:13:55.388Z,95.10
2022-08-24T13:16:40.941Z,98.20
2022-08-24T13:19:16.850Z,81.70
2022-08-24T13:21:45.278Z,81.70
2022-08-24T13:26:43.357Z,82.70
2022-08-24T13:29:10.462Z,85.10
2022-08-24T13:34:10.135Z,84.40
2022-08-24T13:36:36.941Z,84.40
2022-08-24T13:39:15.947Z,81.80
2022-08-24T13:42:01.606Z,88.20
2022-08-24T13:44:43.801Z,89.10
2022-08-24T13:47:22.517Z,94.90
2022-08-24T13:49:52.731Z,74.80
2022-08-24T13:52:52.147Z,82.40
2022-08-24T13:58:19.734Z,86.50
2022-08-24T14:08:17.206Z,66.60
2022-08-24T14:11:19.407Z,67.50
2022-08-24T14:13:49.485Z,66.10
2022-08-24T14:16:56.456Z,65.10
2022-08-24T14:19:34.942Z,68.50
2022-08-24T14:22:10.870Z,84.50
2022-08-24T14:24:45.270Z,93.90
2022-08-24T14:27:33.042Z,66.80
2022-08-24T14:30:12.203Z,67.10
2022-08-24T14:32:40.922Z,91.20
2022-08-24T14:35:13.955Z,95.40
2022-08-24T14:37:57.256Z,65.40
2022-08-24T14:40:35.110Z,64.70
2022-08-24T14:43:22.311Z,65.20
2022-08-24T14:46:03.289Z,75.90
2022-08-24T14:48:55.471Z,67.70
2022-08-24T14:51:22.164Z,70.00
2022-08-24T14:53:58.332Z,69.70
2022-08-24T14:56:44.212Z,66.10
2022-08-24T14:59:30.207Z,67.70
2022-08-24T15:02:16.526Z,65.20
2022-08-24T15:04:47.083Z,75.80
2022-08-24T15:07:25.983Z,64.70
2022-08-24T15:09:53.328Z,62.50
2022-08-24T15:12:37.899Z,60.00
2022-08-24T15:15:11.009Z,59.90
2022-08-24T15:17:45.443Z,61.30
2022-08-24T15:20:18.890Z,60.60
2022-08-24T15:22:55.167Z,83.30
2022-08-24T15:25:40.718Z,81.50
2022-08-24T15:28:12.173Z,74.90
2022-08-24T15:30:40.221Z,93.10
2022-08-24T15:33:10.460Z,62.20
2022-08-24T15:38:18.095Z,99.90
2022-08-24T15:40:46.133Z,65.50
2022-08-24T15:43:18.932Z,67.00
2022-08-24T15:45:47.687Z,68.60
2022-08-24T15:48:16.582Z,65.90
2022-08-24T15:50:45.296Z,64.60
2022-08-24T15:53:30.957Z,61.50
2022-08-24T15:58:52.489Z,60.00
2022-08-24T16:01:40.047Z,59.80
2022-08-24T16:04:27.387Z,58.50
2022-08-24T16:06:54.417Z,58.60
2022-08-24T16:09:21.137Z,60.60
2022-08-24T16:11:51.274Z,66.20
2022-08-24T16:14:26.277Z,65.80
2022-08-24T16:16:56.454Z,67.00
2022-08-24T16:19:24.807Z,68.40
2022-08-24T16:21:51.490Z,68.90
2022-08-24T16:24:25.324Z,68.50
2022-08-24T16:26:57.385Z,69.50
2022-08-24T16:29:37.193Z,71.30
2022-08-24T16:32:15.907Z,72.50
2022-08-24T16:34:50.904Z,75.10
2022-08-24T16:37:19.648Z,74.70
2022-08-24T16:39:47.146Z,73.30
2022-08-24T16:42:21.594Z,76.60
2022-08-24T16:44:48.401Z,78.90
2022-08-24T16:47:15.124Z,79.20
2022-08-24T16:49:42.228Z,80.80
2022-08-24T16:54:35.975Z,85.50
2022-08-24T16:57:10.462Z,87.50
2022-08-24T17:02:04.672Z,89.50
2022-08-24T17:04:32.525Z,91.50
2022-08-24T17:06:59.254Z,92.10
2022-08-24T17:09:25.911Z,92.60
2022-08-24T17:11:52.573Z,92.80
2022-08-24T17:14:20.116Z,99.60
2022-08-24T17:16:47.012Z,97.30
2022-08-24T17:19:15.080Z,99.90
2022-08-24T17:21:43.789Z,97.20
2022-08-24T17:26:40.853Z,97.80
2022-08-24T17:29:19.148Z,99.90
2022-08-24T17:31:47.187Z,99.90
2022-08-24T17:34:14.060Z,99.90
2022-08-24T17:36:41.936Z,99.90
2022-08-24T17:39:09.933Z,94.90
2022-08-24T17:41:36.626Z,95.90
2022-08-24T17:54:16.814Z,96.50
2022-08-24T17:56:46.456Z,97.00
2022-08-24T18:01:47.236Z,97.60
2022-08-24T18:04:14.226Z,98.30
2022-08-24T18:06:40.902Z,98.70
2022-08-24T18:09:09.177Z,99.20
2022-08-24T18:11:35.974Z,99.30
2022-08-24T18:14:02.791Z,99.90
2022-08-24T18:18:56.832Z,99.90
2022-08-24T18:21:23.503Z,99.90
2022-08-24T18:23:50.791Z,99.90
2022-08-24T18:26:28.138Z,99.90
2022-08-24T18:28:57.042Z,99.90
2022-08-24T18:31:25.653Z,99.90
2022-08-24T18:33:52.478Z,99.90
2022-08-24T18:36:19.179Z,99.90
2022-08-24T18:38:45.846Z,99.90
2022-08-24T18:43:40.480Z,99.90
2022-08-24T18:46:08.334Z,99.90
2022-08-24T18:48:35.068Z,99.90
2022-08-24T18:53:29.440Z,99.90
2022-08-24T18:55:56.091Z,99.90
2022-08-24T18:58:22.768Z,99.90
2022-08-24T19:05:45.610Z,99.90
2022-08-24T19:08:12.439Z,99.90
2022-08-24T19:10:39.487Z,99.90
2022-08-24T19:15:40.349Z,99.90
2022-08-24T19:18:09.890Z,99.90
2022-08-24T19:20:37.215Z,99.90
2022-08-24T19:25:31.644Z,99.90
2022-08-24T19:27:58.674Z,99.90
2022-08-24T19:30:27.994Z,99.90
2022-08-24T19:32:57.998Z,99.90
2022-08-24T19:35:24.743Z,99.90
2022-08-24T19:37:51.435Z,99.90
2022-08-24T19:40:18.222Z,99.90
2022-08-24T19:42:49.662Z,99.90
2022-08-24T19:45:37.314Z,99.90
2022-08-24T19:48:04.714Z,99.90
2022-08-24T19:50:35.533Z,99.90
2022-08-24T19:53:02.907Z,99.90
2022-08-24T19:55:29.808Z,99.90
2022-08-24T19:58:06.131Z,99.90
2022-08-24T20:00:37.632Z,99.90
2022-08-24T20:03:06.172Z,99.90
2022-08-24T20:05:35.720Z,99.90
2022-08-24T20:08:03.711Z,99.90
2022-08-24T20:10:31.308Z,99.90
2022-08-24T20:12:57.975Z,99.90
2022-08-24T20:15:25.260Z,99.90
2022-08-24T20:17:52.417Z,99.90
2022-08-24T20:20:20.613Z,99.90
2022-08-24T20:22:47.337Z,99.90
2022-08-24T20:25:14.774Z,99.90
2022-08-24T20:27:42.853Z,99.90
2022-08-24T20:30:09.872Z,99.90
2022-08-24T20:32:36.529Z,99.90
2022-08-24T20:35:03.708Z,99.90
2022-08-24T20:37:31.926Z,99.90
2022-08-24T20:39:58.715Z,99.90
2022-08-24T20:42:26.758Z,99.90
2022-08-24T20:44:54.063Z,99.90
2022-08-24T20:47:20.982Z,99.90
2022-08-24T20:49:48.059Z,99.90
2022-08-24T20:52:14.906Z,99.90
2022-08-24T20:54:41.577Z,99.90
2022-08-24T20:57:09.345Z,99.90
2022-08-24T20:59:36.028Z,99.90
2022-08-24T21:02:03.485Z,99.90
2022-08-24T21:04:30.402Z,99.90
2022-08-24T21:06:57.260Z,99.90
2022-08-24T21:09:24.292Z,99.90
2022-08-24T21:11:51.056Z,99.90
2022-08-24T21:14:17.940Z,99.90
2022-08-24T21:16:44.681Z,99.90
2022-08-24T21:19:12.200Z,99.90
2022-08-24T21:21:42.301Z,99.90
2022-08-24T21:24:09.699Z,99.90
2022-08-24T21:26:36.488Z,99.90
2022-08-24T21:29:04.772Z,99.90
2022-08-24T21:31:31.536Z,99.90
2022-08-24T21:34:16.941Z,99.90
2022-08-24T21:36:44.992Z,99.90
2022-08-24T21:39:13.561Z,99.90
2022-08-24T21:41:40.647Z,99.90
2022-08-24T21:44:07.354Z,99.90
2022-08-24T21:46:36.261Z,99.90
2022-08-24T21:49:03.635Z,99.90
2022-08-24T21:51:30.692Z,99.90
2022-08-24T21:53:59.882Z,99.90
2022-08-24T21:56:28.049Z,99.90
2022-08-24T21:58:54.729Z,99.90
2022-08-24T22:01:21.592Z,99.90
2022-08-24T22:03:48.506Z,99.90
2022-08-24T22:06:15.351Z,99.90
2022-08-24T22:08:42.699Z,99.90
2022-08-24T22:11:10.112Z,99.90
2022-08-24T22:13:36.935Z,99.90
2022-08-24T22:16:03.958Z,99.90
2022-08-24T22:18:31.048Z,99.90
2022-08-24T22:20:57.784Z,99.90
2022-08-24T22:23:24.541Z,99.90
2022-08-24T22:25:52.257Z,99.90
2022-08-24T22:28:18.988Z,99.90
2022-08-24T22:30:48.217Z,99.90
2022-08-24T22:33:16.071Z,99.90
2022-08-24T23:34:45.651Z,99.90
2022-08-24T23:37:12.682Z,99.90
2022-08-24T23:39:39.599Z,99.90
2022-08-24T23:42:06.985Z,99.90
2022-08-24T23:44:34.028Z,99.90
2022-08-24T23:47:00.746Z,99.90
2022-08-24T23:49:28.555Z,99.90
2022-08-24T23:51:55.321Z,99.90
2022-08-24T23:54:22.440Z,99.90
2022-08-24T23:56:50.222Z,99.90
2022-08-24T23:59:19.206Z,99.90
